Time;durP1;ratioP1;P1;durP2;ratioP2;P2;SDS_P1;SDS_P2;PMS_P1;PMS_P2;Temp;Humidity;BMP_temperature;BMP_pressure;BME280_temperature;BME280_humidity;BME280_pressure;Samples;Min_cycle;Max_cycle;Signal;HPM_P1;HPM_P2
2022/10/06 00:01:18;;;;;;;9.45;3.05;;;;;;;13.70;81.59;102050.81;4990995;28;20106;-56
2022/10/06 00:03:45;;;;;;;13.38;2.63;;;;;;;13.63;82.04;102061.88;4990425;28;20027;-56
2022/10/06 00:06:12;;;;;;;7.05;2.15;;;;;;;13.65;82.76;102064.47;4973506;28;20381;-56
2022/10/06 00:08:40;;;;;;;10.85;2.90;;;;;;;13.67;82.46;102069.72;4987541;28;20022;-57
2022/10/06 00:11:06;;;;;;;8.77;2.45;;;;;;;13.64;82.40;102073.41;4973931;28;20401;-56
2022/10/06 00:13:35;;;;;;;7.97;2.40;;;;;;;13.63;82.92;102077.06;4973214;28;20079;-56
2022/10/06 00:16:01;;;;;;;8.32;2.47;;;;;;;13.52;83.24;102077.66;4972925;28;20085;-56
2022/10/06 00:18:28;;;;;;;7.10;2.28;;;;;;;13.49;83.25;102080.50;4989055;28;20057;-56
2022/10/06 00:20:55;;;;;;;8.90;2.58;;;;;;;13.54;83.22;102099.81;4989347;28;20059;-56
2022/10/06 00:23:20;;;;;;;5.47;2.15;;;;;;;13.53;83.73;102095.44;4990535;28;20022;-56
2022/10/06 00:25:45;;;;;;;5.75;2.40;;;;;;;13.48;83.35;102105.50;4990089;28;20050;-56
2022/10/06 00:28:11;;;;;;;8.57;2.65;;;;;;;13.45;83.80;102105.69;4987038;28;20065;-56
2022/10/06 00:30:36;;;;;;;11.93;2.80;;;;;;;13.46;83.72;102112.72;4972879;28;20038;-56
2022/10/06 00:33:03;;;;;;;8.43;2.80;;;;;;;13.38;84.00;102120.31;4972918;28;20068;-56
2022/10/06 00:35:32;;;;;;;8.50;2.53;;;;;;;13.34;83.90;102116.09;4989597;28;20299;-56
2022/10/06 00:37:58;;;;;;;11.55;2.47;;;;;;;13.35;83.57;102126.69;4955159;28;20050;-56
2022/10/06 00:40:27;;;;;;;8.82;3.00;;;;;;;13.35;83.81;102124.03;4970742;28;20469;-56
2022/10/06 00:43:04;;;;;;;6.05;2.60;;;;;;;13.36;83.96;102130.22;4970959;28;20385;-56
2022/10/06 00:45:43;;;;;;;6.53;2.63;;;;;;;13.36;83.79;102128.41;4970666;28;20106;-56
2022/10/06 00:48:19;;;;;;;6.43;2.22;;;;;;;13.34;82.77;102130.31;4972050;28;20037;-56
2022/10/06 00:50:45;;;;;;;11.30;2.38;;;;;;;13.32;82.31;102134.00;4969918;28;20027;-56
2022/10/06 00:53:11;;;;;;;8.57;2.38;;;;;;;13.24;82.74;102136.22;4970797;28;20088;-56
2022/10/06 00:55:36;;;;;;;9.15;2.80;;;;;;;13.19;82.81;102147.13;4970822;28;20030;-56
2022/10/06 00:58:05;;;;;;;12.45;2.75;;;;;;;13.16;82.87;102140.13;4972881;28;20439;-56
2022/10/06 01:00:31;;;;;;;9.00;2.60;;;;;;;13.18;82.77;102140.06;5004453;28;20045;-56
2022/10/06 01:03:06;;;;;;;11.75;2.92;;;;;;;13.24;82.11;102149.56;4990004;28;20365;-56
2022/10/06 01:05:37;;;;;;;9.32;2.65;;;;;;;13.21;82.42;102155.03;4971869;28;20041;-56
2022/10/06 01:08:03;;;;;;;12.30;3.42;;;;;;;13.15;81.58;102154.44;4988424;28;20481;-56
2022/10/06 01:10:28;;;;;;;9.30;2.72;;;;;;;13.09;83.27;102156.59;4986896;28;20115;-56
2022/10/06 01:12:56;;;;;;;11.70;3.35;;;;;;;13.14;81.06;102170.53;4972368;28;20038;-56
2022/10/06 01:15:24;;;;;;;11.63;2.63;;;;;;;13.03;81.79;102165.78;4971195;28;20030;-56
2022/10/06 01:18:04;;;;;;;11.00;2.40;;;;;;;13.02;82.24;102179.19;4970020;28;20505;-56
2022/10/06 01:20:30;;;;;;;10.73;3.33;;;;;;;12.94;81.35;102168.91;4969616;28;20077;-56
2022/10/06 01:23:01;;;;;;;9.27;3.00;;;;;;;13.06;81.26;102181.66;4970253;28;20023;-56
2022/10/06 01:25:28;;;;;;;8.23;2.63;;;;;;;12.95;81.29;102182.19;4969962;28;20054;-56
2022/10/06 01:27:55;;;;;;;12.32;2.75;;;;;;;13.00;81.13;102189.09;4971095;28;20035;-56
2022/10/06 01:30:28;;;;;;;10.45;2.85;;;;;;;13.03;80.38;102199.63;4969940;28;20030;-56
2022/10/06 01:32:54;;;;;;;11.52;3.03;;;;;;;12.99;81.01;102196.25;4984940;28;20031;-57
2022/10/06 01:35:20;;;;;;;7.75;2.70;;;;;;;12.93;81.06;102199.25;4972045;28;20034;-57
2022/10/06 01:37:45;;;;;;;10.18;3.30;;;;;;;12.92;80.63;102209.06;4990006;28;20045;-57
2022/10/06 01:40:11;;;;;;;7.35;2.95;;;;;;;12.92;81.49;102214.41;4989340;28;20050;-57
2022/10/06 01:42:36;;;;;;;10.85;3.33;;;;;;;12.92;80.30;102218.88;4988461;28;20080;-57
2022/10/06 01:45:03;;;;;;;11.35;3.45;;;;;;;12.97;80.64;102216.84;4989309;28;20031;-56
2022/10/06 01:47:31;;;;;;;11.65;3.40;;;;;;;12.87;80.37;102218.25;4990007;28;20276;-55
2022/10/06 01:49:56;;;;;;;12.35;3.00;;;;;;;12.88;81.02;102219.97;4989401;28;20026;-56
2022/10/06 01:52:22;;;;;;;10.30;3.40;;;;;;;12.80;79.98;102216.84;4992898;28;20031;-57
2022/10/06 01:54:47;;;;;;;11.95;3.17;;;;;;;12.78;79.62;102227.56;5008084;28;20507;-56
2022/10/06 01:57:13;;;;;;;9.43;2.80;;;;;;;12.78;80.07;102235.59;4994974;28;20030;-57
2022/10/06 01:59:38;;;;;;;9.95;2.60;;;;;;;12.81;80.43;102238.09;4978381;28;20109;-57
2022/10/06 02:02:04;;;;;;;11.10;3.10;;;;;;;12.76;79.68;102236.59;5012426;28;20433;-56
2022/10/06 02:04:29;;;;;;;11.65;3.22;;;;;;;12.77;79.29;102241.03;5011875;28;20030;-56
2022/10/06 02:06:57;;;;;;;10.25;2.92;;;;;;;12.68;79.29;102235.19;5010574;28;20056;-56
2022/10/06 02:09:23;;;;;;;10.20;2.92;;;;;;;12.66;78.76;102236.22;4994632;28;20053;-57
2022/10/06 02:11:49;;;;;;;11.30;3.47;;;;;;;12.56;79.31;102234.91;4994878;28;20049;-57
2022/10/06 02:14:16;;;;;;;11.35;3.65;;;;;;;12.52;79.51;102233.34;5011972;28;20030;-56
2022/10/06 02:16:42;;;;;;;14.23;3.17;;;;;;;12.50;80.86;102244.13;4976574;28;20535;-56
2022/10/06 02:19:08;;;;;;;14.60;3.05;;;;;;;12.56;79.90;102253.59;4992257;28;20031;-55
2022/10/06 02:21:33;;;;;;;14.20;3.80;;;;;;;12.54;80.30;102253.69;4975278;28;20031;-57
2022/10/06 02:24:01;;;;;;;10.23;3.22;;;;;;;12.56;79.71;102261.59;4974848;28;20042;-56
2022/10/06 02:26:29;;;;;;;11.50;2.90;;;;;;;12.57;79.75;102261.53;4993287;28;20034;-56
2022/10/06 02:28:58;;;;;;;13.45;3.75;;;;;;;12.51;79.90;102267.19;4992199;28;20034;-56
2022/10/06 02:31:23;;;;;;;12.15;3.63;;;;;;;12.44;79.95;102273.72;4992123;28;20026;-56
2022/10/06 02:33:50;;;;;;;12.40;3.67;;;;;;;12.40;80.53;102269.50;4991800;28;20033;-56
2022/10/06 02:36:16;;;;;;;10.23;3.30;;;;;;;12.33;81.09;102276.94;4994814;28;20041;-56
2022/10/06 02:38:42;;;;;;;10.23;3.50;;;;;;;12.31;80.65;102283.28;4993501;28;20099;-56
2022/10/06 02:41:09;;;;;;;14.88;3.42;;;;;;;12.25;82.39;102292.44;4994247;28;20034;-56
2022/10/06 02:43:35;;;;;;;10.98;3.47;;;;;;;12.22;81.34;102279.25;4976924;28;20022;-57
2022/10/06 02:46:04;;;;;;;17.55;3.72;;;;;;;12.23;80.76;102283.63;4994520;28;20041;-56
2022/10/06 02:48:30;;;;;;;15.77;3.75;;;;;;;12.30;81.87;102301.09;4983306;28;20092;-56
2022/10/06 02:50:57;;;;;;;13.27;2.95;;;;;;;12.18;81.43;102297.19;4994035;28;20030;-56
2022/10/06 02:53:24;;;;;;;10.40;3.00;;;;;;;12.22;81.47;102313.91;4992989;28;20040;-56
2022/10/06 02:55:51;;;;;;;13.48;3.28;;;;;;;12.20;81.57;102307.78;4993780;28;20023;-57
2022/10/06 02:58:16;;;;;;;9.55;3.40;;;;;;;12.11;82.55;102321.53;5006254;28;20034;-57
2022/10/06 03:00:41;;;;;;;11.55;3.25;;;;;;;12.09;82.15;102318.06;4992480;28;20034;-57
2022/10/06 03:03:10;;;;;;;10.05;2.85;;;;;;;12.11;81.55;102321.53;4975781;28;20062;-55
2022/10/06 03:05:38;;;;;;;12.93;3.90;;;;;;;12.08;82.41;102322.53;4991422;28;20071;-57
2022/10/06 03:08:03;;;;;;;12.43;3.08;;;;;;;12.12;81.46;102328.59;4991131;28;20155;-57
2022/10/06 03:10:28;;;;;;;14.00;3.60;;;;;;;12.03;82.17;102337.91;4991472;28;20046;-56
2022/10/06 03:12:54;;;;;;;12.95;3.38;;;;;;;12.05;81.98;102341.34;4992825;28;20110;-56
2022/10/06 03:15:20;;;;;;;15.30;3.42;;;;;;;11.97;81.85;102346.16;4991421;28;20058;-57
2022/10/06 03:17:52;;;;;;;8.80;3.47;;;;;;;11.97;81.88;102340.81;4974274;28;20054;-57
2022/10/06 03:20:17;;;;;;;11.20;3.30;;;;;;;11.91;81.61;102342.00;4973774;28;20062;-57
2022/10/06 03:22:43;;;;;;;11.50;2.75;;;;;;;11.93;82.07;102353.44;4997667;28;20472;-57
2022/10/06 03:25:08;;;;;;;16.25;3.17;;;;;;;11.90;81.86;102350.03;4993383;28;20033;-57
2022/10/06 03:27:34;;;;;;;12.63;3.78;;;;;;;11.91;82.40;102357.09;5003281;28;20040;-56
2022/10/06 03:29:59;;;;;;;8.35;3.05;;;;;;;11.86;82.25;102356.47;5005986;28;20037;-57
2022/10/06 03:32:25;;;;;;;13.50;3.03;;;;;;;11.86;82.17;102356.47;4985203;28;20034;-56
2022/10/06 03:34:52;;;;;;;13.85;3.13;;;;;;;11.87;81.74;102360.84;5010207;28;20033;-56
2022/10/06 03:37:18;;;;;;;14.15;4.05;;;;;;;11.81;81.84;102372.59;4993233;28;20068;-57
2022/10/06 03:39:43;;;;;;;12.77;3.17;;;;;;;11.85;82.62;102368.00;4992898;28;20125;-57
2022/10/06 03:42:08;;;;;;;9.07;3.15;;;;;;;11.84;81.81;102369.81;5003740;28;20056;-57
2022/10/06 03:44:34;;;;;;;13.98;3.15;;;;;;;11.81;81.64;102380.59;4990873;28;20060;-56
2022/10/06 03:47:02;;;;;;;15.65;3.80;;;;;;;11.74;82.09;102379.16;4990958;28;20041;-57
2022/10/06 03:49:27;;;;;;;10.93;3.45;;;;;;;11.69;82.17;102382.00;4990391;28;20030;-56
2022/10/06 03:51:53;;;;;;;13.38;3.22;;;;;;;11.66;83.18;102387.47;4999804;28;20056;-57
2022/10/06 03:54:20;;;;;;;16.55;4.05;;;;;;;11.70;82.31;102389.06;5010304;28;20041;-57
2022/10/06 03:56:46;;;;;;;12.77;3.67;;;;;;;11.60;81.72;102388.59;5010431;28;20022;-57
2022/10/06 03:59:16;;;;;;;14.40;3.55;;;;;;;11.59;81.52;102400.19;5009864;28;20041;-56
2022/10/06 04:01:44;;;;;;;18.38;3.88;;;;;;;11.56;82.04;102407.47;5005261;28;20022;-57
2022/10/06 04:04:10;;;;;;;12.25;3.67;;;;;;;11.52;82.06;102400.50;4973027;28;20160;-56
2022/10/06 04:06:39;;;;;;;10.57;3.20;;;;;;;11.51;83.02;102414.78;4990978;28;20035;-56
2022/10/06 04:09:08;;;;;;;12.25;3.67;;;;;;;11.50;82.20;102423.69;4991074;28;20033;-56
2022/10/06 04:11:36;;;;;;;11.55;3.63;;;;;;;11.53;82.30;102426.22;4974096;28;20037;-56
2022/10/06 04:14:07;;;;;;;16.85;4.15;;;;;;;11.36;82.02;102426.94;4989898;28;20048;-56
2022/10/06 04:16:37;;;;;;;19.77;4.63;;;;;;;11.39;82.10;102445.47;4973160;28;20043;-56
2022/10/06 04:19:08;;;;;;;13.40;4.05;;;;;;;11.40;81.42;102448.97;4990085;28;20164;-56
2022/10/06 04:21:35;;;;;;;16.02;4.28;;;;;;;11.36;81.92;102441.13;4990925;28;20105;-56
2022/10/06 04:24:01;;;;;;;18.20;4.13;;;;;;;11.35;82.44;102446.50;5005292;28;20038;-56
2022/10/06 04:26:30;;;;;;;11.90;3.53;;;;;;;11.27;82.27;102445.97;5010170;28;20022;-56
2022/10/06 04:28:56;;;;;;;12.90;4.07;;;;;;;11.33;81.37;102456.38;5009689;28;20052;-56
2022/10/06 04:31:30;;;;;;;13.57;3.90;;;;;;;11.20;81.73;102439.13;5010511;28;20121;-56
2022/10/06 04:33:59;;;;;;;19.85;3.90;;;;;;;11.22;81.75;102454.13;4989932;28;20075;-56
2022/10/06 04:36:28;;;;;;;11.15;3.80;;;;;;;11.24;81.56;102452.28;5010150;28;20030;-56
2022/10/06 04:38:57;;;;;;;10.77;3.42;;;;;;;11.21;81.84;102454.19;5009336;28;20044;-56
2022/10/06 04:41:26;;;;;;;20.40;3.85;;;;;;;11.20;81.93;102463.97;4992307;28;20067;-56
2022/10/06 04:43:51;;;;;;;16.10;4.28;;;;;;;11.03;82.80;102464.63;5008012;28;20030;-56
2022/10/06 04:46:19;;;;;;;16.10;3.63;;;;;;;11.13;82.18;102467.81;5009647;28;20075;-57
2022/10/06 04:48:44;;;;;;;14.85;4.22;;;;;;;11.01;82.42;102460.31;5008970;28;20366;-56
2022/10/06 04:51:15;;;;;;;15.20;4.25;;;;;;;10.95;82.31;102476.50;4992355;28;20065;-55
2022/10/06 04:53:45;;;;;;;17.70;4.00;;;;;;;10.96;82.35;102487.09;5009457;28;20025;-57
2022/10/06 04:56:18;;;;;;;25.05;4.40;;;;;;;10.94;82.36;102483.59;5008004;28;20030;-55
2022/10/06 04:58:46;;;;;;;16.15;4.78;;;;;;;10.93;82.55;102481.03;4991578;28;20547;-57
2022/10/06 05:01:30;;;;;;;17.80;4.50;;;;;;;10.98;82.49;102487.03;5009782;28;20142;-55
2022/10/06 05:04:00;;;;;;;14.48;4.43;;;;;;;10.92;82.91;102498.78;5008716;28;20060;-55
2022/10/06 05:06:27;;;;;;;20.98;4.15;;;;;;;10.88;82.50;102502.47;4992363;28;20040;-57
2022/10/06 05:08:55;;;;;;;16.17;4.50;;;;;;;10.87;83.38;102512.25;4989544;28;20496;-57
2022/10/06 05:11:21;;;;;;;19.20;5.28;;;;;;;10.77;82.92;102502.03;4989609;28;20038;-56
2022/10/06 05:13:49;;;;;;;17.50;4.20;;;;;;;10.84;82.14;102515.03;5004914;28;20026;-57
2022/10/06 05:16:19;;;;;;;20.02;5.13;;;;;;;10.79;82.76;102514.34;4990763;28;20047;-55
2022/10/06 05:18:45;;;;;;;21.45;4.75;;;;;;;10.80;82.52;102515.22;4989167;28;20084;-57
2022/10/06 05:21:13;;;;;;;19.08;4.18;;;;;;;10.77;82.37;102524.19;4989678;28;20485;-56
2022/10/06 05:23:40;;;;;;;19.35;5.60;;;;;;;10.74;82.23;102526.09;4989738;28;20019;-57
2022/10/06 05:26:06;;;;;;;14.50;4.55;;;;;;;10.67;82.44;102518.31;5004052;28;20397;-56
2022/10/06 05:28:34;;;;;;;17.15;4.72;;;;;;;10.66;82.43;102532.56;4991565;28;20029;-56
2022/10/06 05:31:04;;;;;;;23.80;4.15;;;;;;;10.71;82.33;102536.81;5009197;28;20041;-57
2022/10/06 05:33:32;;;;;;;17.95;4.57;;;;;;;10.61;82.42;102541.63;5008723;28;20083;-56
2022/10/06 05:36:03;;;;;;;17.80;4.28;;;;;;;10.66;81.75;102539.69;5007201;28;20083;-56
2022/10/06 05:38:29;;;;;;;18.73;4.43;;;;;;;10.60;82.61;102556.72;4991111;28;20102;-56
2022/10/06 05:41:03;;;;;;;16.67;5.05;;;;;;;10.59;82.99;102559.44;4991331;28;20438;-56
2022/10/06 05:43:29;;;;;;;17.90;4.85;;;;;;;10.54;82.26;102559.59;4991460;28;20134;-56
2022/10/06 05:45:56;;;;;;;17.60;5.95;;;;;;;10.55;82.39;102571.97;5007204;28;20026;-56
2022/10/06 05:48:22;;;;;;;24.67;4.90;;;;;;;10.57;82.48;102575.47;5008838;28;20022;-56
2022/10/06 05:50:56;;;;;;;18.98;4.93;;;;;;;10.53;82.89;102570.28;5008320;28;20030;-57
2022/10/06 05:53:21;;;;;;;20.88;4.75;;;;;;;10.54;82.58;102578.22;4991209;28;20033;-56
2022/10/06 05:55:47;;;;;;;16.50;4.55;;;;;;;10.52;81.77;102577.41;4982341;28;20403;-57
2022/10/06 05:58:12;;;;;;;19.92;4.90;;;;;;;10.54;82.31;102583.56;4990878;28;20037;-56
2022/10/06 06:00:38;;;;;;;18.42;5.07;;;;;;;10.51;82.19;102583.66;5008962;28;20109;-56
2022/10/06 06:03:08;;;;;;;16.10;4.47;;;;;;;10.45;82.60;102578.56;4991376;28;20037;-56
2022/10/06 06:05:33;;;;;;;19.17;4.38;;;;;;;10.40;82.26;102593.78;5007908;28;20018;-57
2022/10/06 06:07:59;;;;;;;17.20;4.35;;;;;;;10.42;82.44;102594.63;5006698;28;20048;-57
2022/10/06 06:10:24;;;;;;;23.40;5.13;;;;;;;10.46;82.27;102594.44;5008155;28;20285;-56
2022/10/06 06:12:49;;;;;;;19.58;4.88;;;;;;;10.46;82.51;102602.44;5008706;28;20499;-56
2022/10/06 06:18:00;;;;;;;17.95;4.40;;;;;;;10.50;82.86;102602.31;4991780;28;20538;-57
2022/10/06 06:20:26;;;;;;;13.40;4.45;;;;;;;10.45;82.44;102608.69;4974330;28;20030;-57
2022/10/06 06:22:52;;;;;;;17.23;4.25;;;;;;;10.41;82.08;102607.06;5008240;28;20135;-56
2022/10/06 06:25:17;;;;;;;19.88;4.70;;;;;;;10.44;82.14;102608.72;4990959;28;20400;-56
2022/10/06 06:27:43;;;;;;;15.77;4.30;;;;;;;10.40;81.94;102613.28;4989239;28;20048;-57
2022/10/06 06:30:09;;;;;;;26.23;4.97;;;;;;;10.46;82.41;102618.38;4990875;28;20022;-56
2022/10/06 06:32:34;;;;;;;17.35;4.82;;;;;;;10.37;82.25;102608.06;5008448;28;20029;-56
2022/10/06 06:35:00;;;;;;;23.27;5.38;;;;;;;10.49;82.50;102616.56;5007860;28;20094;-57
2022/10/06 06:37:27;;;;;;;20.75;4.88;;;;;;;10.45;82.31;102621.13;5009066;28;20050;-56
2022/10/06 06:39:52;;;;;;;24.73;4.93;;;;;;;10.46;82.34;102626.38;5011402;28;20030;-56
2022/10/06 06:42:20;;;;;;;19.48;4.85;;;;;;;10.48;82.60;102628.13;4978020;28;20385;-56
2022/10/06 06:44:46;;;;;;;24.67;4.72;;;;;;;10.52;82.93;102629.75;5010207;28;20091;-56
2022/10/06 06:47:15;;;;;;;16.20;4.47;;;;;;;10.48;83.12;102644.94;5008029;28;20041;-57
2022/10/06 06:49:41;;;;;;;26.38;5.35;;;;;;;10.50;81.95;102645.78;4974617;28;20556;-56
2022/10/06 06:52:07;;;;;;;17.67;4.82;;;;;;;10.53;82.19;102644.78;4992008;28;20105;-57
2022/10/06 06:54:33;;;;;;;24.10;5.35;;;;;;;10.54;82.09;102657.19;4991979;28;20433;-56
2022/10/06 06:56:59;;;;;;;27.02;6.32;;;;;;;10.59;82.23;102650.78;4997970;28;20436;-56
2022/10/06 06:59:25;;;;;;;22.88;5.22;;;;;;;10.62;81.80;102652.47;4977460;28;20026;-57
2022/10/06 07:01:52;;;;;;;21.20;5.40;;;;;;;10.69;82.02;102664.63;4993592;28;20036;-56
2022/10/06 07:04:18;;;;;;;26.52;4.82;;;;;;;10.65;82.40;102665.69;5010491;28;20061;-55
2022/10/06 07:07:06;;;;;;;19.23;4.25;;;;;;;10.68;82.31;102668.22;5008960;28;20125;-56
2022/10/06 07:09:31;;;;;;;17.65;4.50;;;;;;;10.72;82.39;102675.19;5010612;28;20075;-56
2022/10/06 07:11:56;;;;;;;21.83;6.05;;;;;;;10.80;81.65;102681.09;4993521;28;20058;-56
2022/10/06 07:14:23;;;;;;;21.95;5.28;;;;;;;10.81;82.09;102688.16;4977083;28;20036;-56
2022/10/06 07:25:07;;;;;;;18.08;5.18;;;;;;;11.01;81.44;102703.44;4972171;28;20053;-57
2022/10/06 07:27:41;;;;;;;20.25;5.78;;;;;;;11.03;81.20;102701.63;4987073;28;20034;-56
2022/10/06 07:30:26;;;;;;;21.88;5.63;;;;;;;11.10;80.91;102712.91;4969591;28;20035;-56
2022/10/06 07:32:53;;;;;;;26.10;5.18;;;;;;;11.18;80.24;102713.50;4968118;28;20544;-57
2022/10/06 07:35:20;;;;;;;18.00;5.28;;;;;;;11.23;80.89;102716.84;4968409;28;20038;-57
2022/10/06 07:37:46;;;;;;;23.75;5.10;;;;;;;11.20;81.54;102710.78;4969771;28;20038;-57
2022/10/06 07:40:13;;;;;;;23.67;6.63;;;;;;;11.27;80.79;102728.31;4969292;28;20458;-57
2022/10/06 07:42:50;;;;;;;18.17;5.28;;;;;;;11.27;81.13;102726.50;4968921;28;20069;-56
2022/10/06 07:45:38;;;;;;;16.02;5.38;;;;;;;11.36;80.46;102733.28;4969469;28;20104;-56
2022/10/06 07:48:13;;;;;;;20.92;5.60;;;;;;;11.46;79.99;102736.47;4968670;28;20031;-56
2022/10/06 07:50:40;;;;;;;20.52;5.68;;;;;;;11.55;80.47;102744.13;4968917;28;20039;-59
2022/10/06 07:53:08;;;;;;;16.20;5.15;;;;;;;11.65;80.64;102745.56;4968520;28;20560;-57
2022/10/06 07:55:39;;;;;;;15.25;4.53;;;;;;;11.75;80.19;102746.94;4951207;28;20054;-57
2022/10/06 07:58:12;;;;;;;23.38;5.25;;;;;;;11.81;79.31;102753.84;4950159;28;20129;-57
2022/10/06 08:00:38;;;;;;;22.45;4.70;;;;;;;11.93;79.11;102741.88;4938153;28;20092;-56
2022/10/06 08:03:04;;;;;;;18.15;4.45;;;;;;;11.89;78.46;102746.47;4992501;28;20061;-56
2022/10/06 08:05:30;;;;;;;16.05;4.53;;;;;;;11.96;78.05;102763.09;4989776;28;20496;-57
2022/10/06 08:07:57;;;;;;;18.92;4.97;;;;;;;12.07;78.68;102758.22;5008818;28;20407;-57
2022/10/06 08:10:22;;;;;;;18.77;4.90;;;;;;;12.21;78.13;102760.34;4992489;28;20026;-57
2022/10/06 08:12:47;;;;;;;16.10;5.28;;;;;;;12.29;77.47;102768.91;5010091;28;20127;-56
2022/10/06 08:15:13;;;;;;;21.77;4.80;;;;;;;12.36;77.38;102770.41;5009934;28;20037;-56
2022/10/06 08:17:41;;;;;;;18.98;4.68;;;;;;;12.48;76.85;102774.41;4990645;28;20046;-56
2022/10/06 08:20:09;;;;;;;16.42;5.05;;;;;;;12.56;76.89;102779.41;5009131;28;20057;-56
2022/10/06 08:22:36;;;;;;;21.13;4.75;;;;;;;12.70;76.15;102783.25;4992575;28;20429;-56
2022/10/06 08:25:02;;;;;;;15.05;4.40;;;;;;;12.75;75.62;102787.56;4990141;28;20034;-56
2022/10/06 08:27:30;;;;;;;21.42;5.80;;;;;;;12.77;75.27;102788.38;5003993;28;20087;-56
2022/10/06 08:29:56;;;;;;;21.13;4.28;;;;;;;12.79;75.16;102795.34;4973109;28;20037;-56
2022/10/06 08:32:24;;;;;;;16.20;4.32;;;;;;;12.83;75.69;102801.47;4973111;28;20038;-56
2022/10/06 08:34:50;;;;;;;13.38;4.20;;;;;;;12.86;76.06;102801.34;4972265;28;20115;-56
2022/10/06 08:37:22;;;;;;;17.92;4.35;;;;;;;12.95;76.02;102804.47;5002599;28;20067;-56
2022/10/06 08:39:51;;;;;;;14.63;4.18;;;;;;;12.94;76.53;102801.88;5009569;28;20034;-56
2022/10/06 08:42:22;;;;;;;15.60;4.05;;;;;;;13.00;76.66;102806.97;5009920;28;20021;-56
2022/10/06 08:44:56;;;;;;;18.67;4.78;;;;;;;13.08;75.85;102814.66;5010059;28;20518;-56
2022/10/06 08:47:26;;;;;;;15.70;4.25;;;;;;;13.16;76.19;102812.53;4990624;28;20030;-56
2022/10/06 08:49:55;;;;;;;13.32;3.88;;;;;;;13.19;74.46;102815.94;5008939;28;20453;-56
2022/10/06 08:52:50;;;;;;;17.08;3.53;;;;;;;13.24;74.39;102818.44;4990452;28;20030;-56
2022/10/06 08:55:33;;;;;;;16.80;5.05;;;;;;;13.35;74.80;102817.97;4991991;28;20045;-56
2022/10/06 08:58:16;;;;;;;16.52;4.82;;;;;;;13.47;74.79;102825.50;5009529;28;20628;-56
2022/10/06 09:00:44;;;;;;;18.02;4.72;;;;;;;13.58;73.55;102827.69;5008612;28;20049;-56
2022/10/06 09:03:22;;;;;;;19.80;4.70;;;;;;;13.73;74.08;102826.13;4970423;28;20050;-56
2022/10/06 09:05:52;;;;;;;21.27;4.60;;;;;;;13.86;72.71;102824.66;4967547;28;20039;-56
2022/10/06 09:08:43;;;;;;;17.02;3.88;;;;;;;14.10;72.87;102828.00;4953107;28;20022;-56
2022/10/06 09:11:18;;;;;;;16.95;4.10;;;;;;;14.22;72.53;102835.47;4970266;28;20031;-56
2022/10/06 09:13:58;;;;;;;16.42;4.45;;;;;;;14.43;71.41;102835.41;5008747;28;20026;-57
2022/10/06 09:16:29;;;;;;;12.75;4.47;;;;;;;14.63;70.39;102851.41;4996254;28;20501;-56
2022/10/06 09:19:11;;;;;;;18.58;4.20;;;;;;;14.68;70.04;102845.84;4971393;28;20394;-57
2022/10/06 09:21:44;;;;;;;23.30;4.55;;;;;;;14.90;69.12;102846.53;4989706;28;20030;-57
2022/10/06 09:24:14;;;;;;;11.90;4.18;;;;;;;15.01;67.66;102848.69;4970114;28;20027;-57
2022/10/06 09:26:42;;;;;;;16.02;3.67;;;;;;;15.24;67.66;102860.94;4985175;28;20089;-56
2022/10/06 09:29:09;;;;;;;13.85;4.20;;;;;;;15.25;67.26;102865.34;4970213;28;20027;-57
2022/10/06 09:31:41;;;;;;;12.27;4.07;;;;;;;15.32;67.54;102857.84;4958375;28;20481;-57
2022/10/06 09:34:18;;;;;;;17.63;4.28;;;;;;;15.36;65.71;102864.81;4988979;28;20105;-56
2022/10/06 09:37:02;;;;;;;15.02;3.33;;;;;;;15.53;67.02;102859.44;4989454;28;20396;-56
2022/10/06 09:39:32;;;;;;;10.82;3.13;;;;;;;15.71;64.89;102867.53;5008867;28;20029;-56
2022/10/06 09:42:02;;;;;;;15.35;3.80;;;;;;;15.71;64.01;102867.53;5008987;28;20018;-56
2022/10/06 09:44:43;;;;;;;15.18;3.13;;;;;;;15.69;64.00;102874.78;5008853;28;20388;-57
2022/10/06 09:47:30;;;;;;;15.18;3.75;;;;;;;15.66;64.18;102870.41;4990572;28;20096;-56
2022/10/06 09:50:11;;;;;;;9.93;2.67;;;;;;;15.72;63.63;102879.97;4988797;28;20370;-57
2022/10/06 09:53:04;;;;;;;15.80;3.58;;;;;;;15.51;63.94;102881.94;4986893;28;20030;-56
2022/10/06 09:55:36;;;;;;;16.23;3.50;;;;;;;15.49;63.74;102879.31;5007801;28;20443;-56
2022/10/06 09:58:14;;;;;;;13.23;3.72;;;;;;;15.49;63.30;102882.00;4969975;28;20031;-56
2022/10/06 10:00:50;;;;;;;15.32;3.90;;;;;;;15.47;61.49;102883.91;4969496;28;20027;-56
2022/10/06 10:03:17;;;;;;;12.30;3.40;;;;;;;15.46;61.89;102884.84;4952279;28;20035;-56
2022/10/06 10:05:49;;;;;;;13.85;3.78;;;;;;;15.50;64.18;102889.13;4981330;28;20058;-56
2022/10/06 10:08:14;;;;;;;14.90;3.42;;;;;;;15.63;63.46;102879.47;4990019;28;20027;-57
2022/10/06 10:10:42;;;;;;;13.88;3.40;;;;;;;15.66;62.87;102873.09;4988988;28;20037;-56
2022/10/06 10:13:28;;;;;;;12.50;3.25;;;;;;;16.07;64.28;102880.78;4992566;28;20458;-56
2022/10/06 10:15:57;;;;;;;13.73;3.38;;;;;;;16.18;60.81;102869.47;4991961;28;20022;-55
2022/10/06 10:18:27;;;;;;;;;;;;;;;16.42;61.17;102873.50;4976144;28;20079;-57
2022/10/06 10:21:03;;;;;;;13.50;3.28;;;;;;;16.37;57.94;102882.75;4989154;28;20341;-56
2022/10/06 10:23:35;;;;;;;10.95;3.13;;;;;;;16.28;57.89;102886.81;4992402;28;20022;-56
2022/10/06 10:26:28;;;;;;;9.70;2.97;;;;;;;16.39;59.46;102884.41;4988380;28;20030;-56
2022/10/06 10:29:17;;;;;;;13.18;3.20;;;;;;;16.85;59.09;102881.00;5011830;28;20052;-56
2022/10/06 10:32:04;;;;;;;9.52;2.83;;;;;;;17.12;54.26;102879.41;4994258;28;20394;-56
2022/10/06 10:34:30;;;;;;;11.82;3.10;;;;;;;17.35;56.32;102891.50;5010414;28;20025;-56
2022/10/06 10:37:03;;;;;;;10.25;2.70;;;;;;;17.70;53.61;102886.69;5009992;28;20041;-56
2022/10/06 10:39:31;;;;;;;11.52;2.58;;;;;;;17.91;50.40;102891.75;5011605;28;20498;-57
2022/10/06 10:42:01;;;;;;;7.53;2.78;;;;;;;18.27;52.45;102879.69;5011900;28;20037;-56
2022/10/06 10:44:33;;;;;;;9.20;2.90;;;;;;;18.78;51.28;102886.25;4993893;28;20037;-57
2022/10/06 10:47:13;;;;;;;12.40;2.50;;;;;;;19.12;48.61;102892.13;4981297;28;20751;-57
2022/10/06 10:49:48;;;;;;;8.80;2.53;;;;;;;19.06;46.56;102895.25;4988816;28;20018;-56
2022/10/06 10:52:26;;;;;;;11.65;2.70;;;;;;;19.16;46.83;102887.41;4991970;28;20065;-57
2022/10/06 10:55:02;;;;;;;8.88;2.47;;;;;;;19.76;47.31;102883.34;4991893;28;20473;-57
2022/10/06 10:57:36;;;;;;;12.45;2.42;;;;;;;20.09;46.09;102886.38;4975363;28;20439;-57
2022/10/06 11:00:17;;;;;;;9.07;2.55;;;;;;;20.33;47.86;102877.50;4991563;28;20397;-57
2022/10/06 11:02:43;;;;;;;12.23;2.80;;;;;;;20.64;43.18;102897.75;4991786;28;20031;-56
2022/10/06 11:05:33;;;;;;;6.22;2.10;;;;;;;20.87;44.76;102887.97;4991180;28;20042;-57
2022/10/06 11:08:13;;;;;;;8.85;2.92;;;;;;;20.99;43.26;102897.88;5010956;28;20030;-57
2022/10/06 11:10:46;;;;;;;8.32;2.95;;;;;;;21.16;42.45;102895.75;5011176;28;20095;-56
2022/10/06 11:13:14;;;;;;;11.23;2.95;;;;;;;21.53;41.96;102900.13;5010861;28;20026;-57
2022/10/06 11:15:52;;;;;;;10.73;2.72;;;;;;;21.74;41.58;102897.59;5009245;28;20398;-57
2022/10/06 11:18:34;;;;;;;10.10;2.67;;;;;;;22.22;42.25;102896.56;4978916;28;20034;-56
2022/10/06 11:21:21;;;;;;;9.32;2.40;;;;;;;22.37;41.79;102903.44;4974073;28;20034;-56
2022/10/06 11:23:50;;;;;;;9.50;3.25;;;;;;;22.36;39.65;102903.59;4972466;28;20030;-56
2022/10/06 11:26:23;;;;;;;13.35;2.55;;;;;;;22.80;39.34;102899.09;5001991;28;20484;-56
2022/10/06 11:29:18;;;;;;;8.55;2.45;;;;;;;22.99;38.55;102903.88;5010422;28;20026;-57
2022/10/06 11:32:03;;;;;;;8.95;2.65;;;;;;;23.35;37.52;102900.81;5010963;28;20030;-56
2022/10/06 11:34:29;;;;;;;10.48;2.65;;;;;;;23.31;37.88;102901.19;5010344;28;20042;-56
2022/10/06 11:37:44;;;;;;;7.60;2.30;;;;;;;23.72;38.36;102897.66;4991799;28;20408;-57
2022/10/06 11:40:43;;;;;;;9.30;2.60;;;;;;;24.01;37.41;102889.69;5010752;28;20049;-56
2022/10/06 11:43:27;;;;;;;10.68;2.58;;;;;;;24.41;36.56;102888.88;5010652;28;20049;-56